Acton Vale, Canada
Current Conditions -  °F | °C
As of 3:00 PM on Friday 24 Oct 2014 (Local Time) from CYHU Reporting Station
Overcast Overcast  
Wind Chill: 54°   Ceiling: 4200
Heat Index: 54°   Visibility: 9mi
Dew Point: 37°   Wind: 6mph
Humidity: 54%   Direction: 20°NNE
Pressure: 29.83"   Gusts: NA
Location:  45.63°N, 72.57°W
Report Text: CYHU 241900Z AUTO 02005KT 9SM BKN042 OVC060 12/03 A2983 RMK SLP103
Loading
Personal Weather Stations






























Interactive Weather Map
Tropical Storm Tracking
New forecast layout! Learn more

10-Day Weather Forecast

Advertisements
Track Severe Weather on mobile